Time;durP1;ratioP1;P1;durP2;ratioP2;P2;SDS_P1;SDS_P2;PMS_P1;PMS_P2;Temp;Humidity;BMP_temperature;BMP_pressure;BME280_temperature;BME280_humidity;BME280_pressure;Samples;Min_cycle;Max_cycle;Signal;HPM_P1;HPM_P2
2021/07/19 00:01:20;;;;;;;3.40;2.83;;;;;;;16.67;100.00;100887.03;4963026;28;20224;-76
2021/07/19 00:03:47;;;;;;;4.37;2.80;;;;;;;16.59;100.00;100886.56;4966470;28;20216;-76
2021/07/19 00:06:14;;;;;;;5.10;2.90;;;;;;;16.68;100.00;100891.38;4964934;28;20225;-76
2021/07/19 00:08:41;;;;;;;3.43;2.80;;;;;;;16.74;100.00;100891.06;4967841;28;20245;-76
2021/07/19 00:11:07;;;;;;;5.60;3.07;;;;;;;16.71;100.00;100890.38;4962691;28;20217;-76
2021/07/19 00:13:34;;;;;;;3.03;2.60;;;;;;;16.77;100.00;100882.19;4971676;28;20209;-76
2021/07/19 00:16:00;;;;;;;2.60;2.40;;;;;;;16.84;100.00;100889.75;4964817;28;20361;-76
2021/07/19 00:18:27;;;;;;;4.77;2.60;;;;;;;16.92;100.00;100880.63;4969973;28;20217;-76
2021/07/19 00:20:54;;;;;;;3.23;2.40;;;;;;;16.96;100.00;100882.19;4964492;28;20215;-76
2021/07/19 00:23:21;;;;;;;3.70;2.80;;;;;;;17.01;100.00;100886.31;4966806;28;20217;-76
2021/07/19 00:25:48;;;;;;;4.30;2.53;;;;;;;17.05;100.00;100892.28;4966872;28;20228;-76
2021/07/19 00:28:14;;;;;;;3.00;2.33;;;;;;;17.11;100.00;100893.75;4967147;28;20206;-76
2021/07/19 00:30:42;;;;;;;3.33;2.47;;;;;;;17.18;100.00;100903.06;4966539;28;20218;-75
2021/07/19 00:33:10;;;;;;;3.30;2.47;;;;;;;17.21;100.00;100902.91;4967471;28;20206;-76
2021/07/19 00:35:37;;;;;;;2.50;2.30;;;;;;;17.23;100.00;100909.78;4965901;28;20229;-76
2021/07/19 00:38:04;;;;;;;5.03;2.30;;;;;;;17.30;99.74;100909.50;4965873;28;20194;-76
2021/07/19 00:40:35;;;;;;;3.87;2.40;;;;;;;17.36;98.70;100903.91;4965819;28;20213;-76
2021/07/19 00:43:02;;;;;;;5.97;2.80;;;;;;;17.44;98.43;100908.81;4949826;28;20209;-76
2021/07/19 00:45:29;;;;;;;4.13;2.50;;;;;;;17.44;97.76;100914.94;4949951;28;20257;-76
2021/07/19 00:47:58;;;;;;;3.47;2.10;;;;;;;17.52;96.48;100918.03;4966087;28;20720;-76
2021/07/19 00:50:27;;;;;;;4.07;2.30;;;;;;;17.55;96.35;100922.28;4966833;28;20240;-76
2021/07/19 00:52:57;;;;;;;4.00;2.30;;;;;;;17.58;94.91;100927.41;4966085;28;20244;-76
2021/07/19 00:55:29;;;;;;;3.33;2.50;;;;;;;17.60;95.23;100921.13;4950386;28;20723;-76
2021/07/19 00:57:58;;;;;;;2.57;2.33;;;;;;;17.63;94.89;100919.28;4963729;28;20210;-76
2021/07/19 01:00:26;;;;;;;5.63;2.40;;;;;;;17.63;95.00;100921.94;4964424;28;20210;-76
2021/07/19 01:02:54;;;;;;;4.47;2.90;;;;;;;17.63;95.05;100920.13;4964168;28;20212;-76
2021/07/19 01:05:21;;;;;;;3.87;2.90;;;;;;;17.62;94.44;100926.31;4977233;28;20241;-76
2021/07/19 01:07:49;;;;;;;5.53;2.23;;;;;;;17.62;95.53;100923.69;4962391;28;20260;-76
2021/07/19 01:10:18;;;;;;;4.67;2.80;;;;;;;17.60;94.56;100922.91;4964808;28;20201;-76
2021/07/19 01:12:49;;;;;;;4.87;3.10;;;;;;;17.65;94.39;100925.34;4977146;28;20281;-76
2021/07/19 01:15:18;;;;;;;3.73;3.03;;;;;;;17.63;94.25;100919.28;4966274;28;20241;-76
2021/07/19 01:17:46;;;;;;;4.80;3.10;;;;;;;17.60;94.40;100928.19;4947147;28;20541;-76
2021/07/19 01:20:13;;;;;;;6.27;3.00;;;;;;;17.58;94.50;100933.53;4967205;28;20221;-76
2021/07/19 01:23:08;;;;;;;3.43;2.90;;;;;;;17.57;94.89;100928.34;4961642;28;20256;-76
2021/07/19 01:26:25;;;;;;;4.73;3.37;;;;;;;17.53;94.82;100930.28;4963513;28;20222;-76
2021/07/19 01:28:54;;;;;;;6.27;3.47;;;;;;;17.50;94.70;100925.19;4891751;28;20611;-76
2021/07/19 01:31:25;;;;;;;4.87;3.10;;;;;;;17.49;95.57;100919.97;4965212;28;20206;-76
2021/07/19 01:33:58;;;;;;;4.53;3.17;;;;;;;17.45;95.21;100923.69;4945867;28;20353;-76
2021/07/19 01:36:29;;;;;;;6.37;3.97;;;;;;;17.39;95.80;100933.59;4963308;28;20234;-76
2021/07/19 01:39:34;;;;;;;3.77;3.37;;;;;;;17.39;96.35;100940.66;4920276;29;20379;-76
2021/07/19 01:42:06;;;;;;;3.93;3.10;;;;;;;17.35;96.60;100950.50;4925225;29;20441;-76
2021/07/19 01:44:37;;;;;;;3.80;3.40;;;;;;;17.34;97.04;100953.22;4926652;28;20226;-76
2021/07/19 01:47:06;;;;;;;6.27;3.40;;;;;;;17.31;96.87;100956.03;4974045;28;20238;-76
2021/07/19 01:49:38;;;;;;;5.80;3.93;;;;;;;17.30;97.38;100955.16;4964748;28;20236;-76
2021/07/19 01:52:06;;;;;;;7.90;3.30;;;;;;;17.27;97.61;100954.44;4962395;28;20459;-76
2021/07/19 01:54:35;;;;;;;6.90;3.90;;;;;;;17.26;97.77;100956.22;4963810;28;20214;-76
2021/07/19 01:57:05;;;;;;;5.73;3.50;;;;;;;17.26;98.19;100958.88;4962373;28;20301;-76
2021/07/19 01:59:37;;;;;;;5.20;4.40;;;;;;;17.25;97.82;100958.94;4977508;28;20210;-76
2021/07/19 02:02:20;;;;;;;6.13;3.73;;;;;;;17.27;97.78;100962.34;4948369;28;20210;-76
2021/07/19 02:04:51;;;;;;;3.57;3.20;;;;;;;17.28;98.06;100950.91;4964941;28;20728;-76
2021/07/19 02:07:23;;;;;;;8.03;3.73;;;;;;;17.26;97.75;100966.78;4948356;28;20546;-76
2021/07/19 02:09:53;;;;;;;5.73;3.77;;;;;;;17.22;98.07;100970.50;4948947;28;20661;-76
2021/07/19 02:12:40;;;;;;;5.77;3.97;;;;;;;17.22;98.28;100970.50;4958555;28;20201;-76
2021/07/19 02:15:12;;;;;;;5.30;3.83;;;;;;;17.20;98.07;100962.66;4947260;28;20296;-76
2021/07/19 02:17:40;;;;;;;7.43;4.23;;;;;;;17.22;97.93;100965.22;4943275;28;20590;-76
2021/07/19 02:20:09;;;;;;;5.27;3.80;;;;;;;17.23;98.10;100964.28;4950118;28;20198;-76
2021/07/19 02:22:41;;;;;;;7.70;4.40;;;;;;;17.31;99.62;100969.19;4944207;28;20591;-76
2021/07/19 02:25:20;;;;;;;6.60;3.97;;;;;;;17.28;98.28;100975.44;4949398;28;20248;-76
2021/07/19 02:27:56;;;;;;;6.70;4.03;;;;;;;17.29;98.50;100981.56;4946983;28;20735;-76
2021/07/19 02:30:25;;;;;;;5.93;3.63;;;;;;;17.30;97.91;100981.50;4947510;28;20202;-75
2021/07/19 02:32:55;;;;;;;7.27;4.20;;;;;;;17.31;98.03;100977.94;4945801;28;20217;-76
2021/07/19 02:35:26;;;;;;;8.53;3.90;;;;;;;17.37;99.53;100980.28;4949421;28;20269;-76
2021/07/19 02:37:57;;;;;;;5.90;4.60;;;;;;;17.37;98.55;100982.06;4948276;28;20703;-76
2021/07/19 02:40:27;;;;;;;5.70;4.67;;;;;;;17.36;98.05;100983.84;4963173;28;20564;-76
2021/07/19 02:42:57;;;;;;;6.10;3.83;;;;;;;17.37;97.90;100984.69;4964514;28;20408;-76
2021/07/19 02:45:27;;;;;;;5.93;4.23;;;;;;;17.37;98.33;100988.16;4966078;28;20304;-76
2021/07/19 02:47:56;;;;;;;7.20;4.37;;;;;;;17.41;97.73;100983.59;4947999;28;20221;-76
2021/07/19 02:50:32;;;;;;;6.67;4.67;;;;;;;17.41;97.91;100988.88;4961852;28;20209;-76
2021/07/19 02:53:03;;;;;;;6.37;4.33;;;;;;;17.44;98.26;100985.25;4966936;28;20599;-76
2021/07/19 02:55:32;;;;;;;8.30;4.53;;;;;;;17.44;98.25;100987.88;4947276;28;20225;-77
2021/07/19 02:57:59;;;;;;;6.43;4.20;;;;;;;17.45;97.77;100985.19;4963714;28;20205;-76
2021/07/19 03:00:28;;;;;;;6.83;4.37;;;;;;;17.44;97.61;100993.16;4963318;28;20202;-75
2021/07/19 03:03:02;;;;;;;6.30;3.80;;;;;;;17.44;97.36;100994.00;4964451;28;20221;-76
2021/07/19 03:05:33;;;;;;;7.03;4.13;;;;;;;17.47;97.69;100996.50;4977870;28;20525;-76
2021/07/19 03:08:05;;;;;;;5.77;4.07;;;;;;;17.51;98.26;101003.31;4962384;28;20936;-77
2021/07/19 03:10:57;;;;;;;6.47;4.27;;;;;;;17.49;97.15;100989.38;4944165;28;20712;-76
2021/07/19 03:13:31;;;;;;;6.33;4.30;;;;;;;17.52;97.12;100990.97;4945744;28;20201;-76
2021/07/19 03:16:01;;;;;;;6.63;3.97;;;;;;;17.53;97.91;100995.34;4947789;28;20226;-76
2021/07/19 03:18:30;;;;;;;6.13;4.20;;;;;;;17.55;97.55;100999.63;4964476;28;20202;-76
2021/07/19 03:20:59;;;;;;;6.83;4.00;;;;;;;17.51;96.78;100998.03;4964461;28;20261;-76
2021/07/19 03:23:29;;;;;;;5.47;3.80;;;;;;;17.54;97.70;101012.88;4980194;28;20225;-77
2021/07/19 03:25:58;;;;;;;7.53;3.80;;;;;;;17.53;96.52;101005.88;4966687;28;20229;-76
2021/07/19 03:28:26;;;;;;;7.33;4.17;;;;;;;17.57;98.96;101000.41;4964876;28;20268;-76
2021/07/19 03:30:54;;;;;;;7.97;4.30;;;;;;;17.53;97.85;101006.72;4966421;28;20237;-76
2021/07/19 03:33:23;;;;;;;5.73;4.30;;;;;;;17.53;97.46;101011.16;4952227;28;20261;-76
2021/07/19 03:35:50;;;;;;;6.90;4.00;;;;;;;17.57;99.87;101015.34;4947428;28;20424;-76
2021/07/19 03:38:19;;;;;;;8.27;4.30;;;;;;;17.55;99.49;101012.81;4967410;28;20214;-75
2021/07/19 03:41:13;;;;;;;8.77;4.60;;;;;;;17.51;99.64;101013.00;4965992;28;20301;-76
2021/07/19 03:43:45;;;;;;;4.40;3.50;;;;;;;17.53;100.00;101003.25;4953616;28;20292;-76
2021/07/19 03:46:12;;;;;;;6.70;4.40;;;;;;;17.47;99.37;101014.09;4966464;28;20564;-76
2021/07/19 03:48:41;;;;;;;7.97;4.60;;;;;;;17.51;100.00;101013.84;4948302;28;20236;-76
2021/07/19 03:51:10;;;;;;;7.77;4.00;;;;;;;17.48;100.00;101013.16;4965743;28;20213;-76
2021/07/19 03:53:40;;;;;;;8.00;3.73;;;;;;;17.56;100.00;101011.84;4947346;28;20206;-76
2021/07/19 03:56:09;;;;;;;6.00;4.03;;;;;;;17.58;100.00;101014.41;4966121;28;20624;-76
2021/07/19 03:58:38;;;;;;;5.43;4.43;;;;;;;17.53;100.00;101019.06;4971343;28;20210;-76
2021/07/19 04:01:07;;;;;;;5.73;4.20;;;;;;;17.61;100.00;101014.28;4977752;28;20205;-76
2021/07/19 04:03:45;;;;;;;5.03;4.27;;;;;;;17.59;100.00;101018.78;4980209;28;20210;-76
2021/07/19 04:06:18;;;;;;;6.47;4.37;;;;;;;17.54;100.00;101020.78;4965118;28;20217;-76
2021/07/19 04:08:52;;;;;;;6.17;4.40;;;;;;;17.57;100.00;101017.97;4966601;28;20225;-76
2021/07/19 04:11:21;;;;;;;5.53;3.77;;;;;;;17.48;100.00;101021.91;4959871;28;20680;-76
2021/07/19 04:13:55;;;;;;;6.53;4.00;;;;;;;17.53;100.00;101016.44;4950267;28;20767;-76
2021/07/19 04:16:24;;;;;;;4.60;4.10;;;;;;;17.48;100.00;101023.69;4966514;28;20265;-76
2021/07/19 04:18:52;;;;;;;6.43;3.83;;;;;;;17.42;100.00;101023.06;4950224;28;20297;-76
2021/07/19 04:21:21;;;;;;;5.43;4.07;;;;;;;17.33;100.00;101023.53;4975632;28;20225;-76
2021/07/19 04:23:48;;;;;;;7.17;3.63;;;;;;;17.31;99.58;101035.91;4964154;28;20292;-77
2021/07/19 04:26:18;;;;;;;5.20;4.00;;;;;;;17.28;97.98;101037.84;4962815;28;20763;-76
2021/07/19 04:28:52;;;;;;;5.70;3.80;;;;;;;17.22;96.64;101039.00;4953545;28;20214;-76
2021/07/19 04:31:18;;;;;;;5.27;3.60;;;;;;;17.23;95.47;101045.97;4962754;28;20782;-76
2021/07/19 04:33:54;;;;;;;6.40;4.20;;;;;;;17.17;92.75;101046.28;4967025;28;20229;-76
2021/07/19 04:36:29;;;;;;;6.43;3.50;;;;;;;17.12;92.70;101043.84;4977944;28;20237;-76
2021/07/19 04:38:56;;;;;;;5.47;3.83;;;;;;;17.15;93.11;101056.88;4970551;28;20803;-76
2021/07/19 04:41:22;;;;;;;5.33;3.90;;;;;;;17.19;94.50;101053.16;4963099;28;20218;-76
2021/07/19 04:43:49;;;;;;;6.00;3.73;;;;;;;17.16;93.59;101055.09;4972935;28;20205;-76
2021/07/19 04:46:15;;;;;;;5.83;4.10;;;;;;;17.14;92.86;101065.69;4964060;28;20712;-76
2021/07/19 04:48:42;;;;;;;4.77;3.50;;;;;;;17.13;92.57;101065.75;4971072;28;20494;-76
2021/07/19 04:51:08;;;;;;;5.87;3.13;;;;;;;17.15;93.58;101059.50;4965639;28;20201;-76
2021/07/19 04:53:36;;;;;;;5.20;3.73;;;;;;;17.14;92.82;101055.16;4965642;28;20293;-76
2021/07/19 04:56:03;;;;;;;4.77;3.87;;;;;;;17.23;93.74;101059.97;4965208;28;20233;-76
2021/07/19 04:58:30;;;;;;;6.73;3.60;;;;;;;17.27;92.89;101065.13;4965574;28;20286;-76
2021/07/19 05:01:00;;;;;;;4.87;3.70;;;;;;;17.29;93.85;101063.25;4964554;28;20197;-76
2021/07/19 05:03:29;;;;;;;5.77;3.80;;;;;;;17.31;93.79;101056.16;4966748;28;20661;-76
2021/07/19 05:05:57;;;;;;;7.83;3.50;;;;;;;17.25;91.35;101064.34;4964398;28;20566;-76
2021/07/19 05:08:25;;;;;;;4.90;3.93;;;;;;;17.25;90.76;101066.97;4964569;28;20321;-76
2021/07/19 05:10:53;;;;;;;6.97;4.17;;;;;;;17.30;91.12;101068.47;4965182;28;20632;-76
2021/07/19 05:13:20;;;;;;;6.37;3.83;;;;;;;17.35;91.03;101073.53;4965042;28;20636;-76
2021/07/19 05:15:47;;;;;;;6.57;4.10;;;;;;;17.34;90.40;101082.34;4963320;28;20703;-76
2021/07/19 05:18:17;;;;;;;8.60;3.77;;;;;;;17.37;90.35;101076.94;4964322;28;20212;-76
2021/07/19 05:20:44;;;;;;;7.93;3.77;;;;;;;17.37;90.88;101077.78;4967464;28;20674;-76
2021/07/19 05:23:11;;;;;;;5.37;4.13;;;;;;;17.38;89.49;101084.78;4964020;28;20432;-76
2021/07/19 05:25:38;;;;;;;4.90;3.67;;;;;;;17.36;90.17;101081.38;4965679;28;20442;-76
2021/07/19 05:28:08;;;;;;;6.30;3.60;;;;;;;17.27;89.28;101084.41;4962530;28;20308;-76
2021/07/19 05:30:36;;;;;;;6.53;4.03;;;;;;;17.30;89.59;101081.63;4965367;28;20234;-76
2021/07/19 05:33:03;;;;;;;8.53;3.97;;;;;;;17.35;91.19;101078.78;4964106;28;20317;-76
2021/07/19 05:35:30;;;;;;;8.27;4.20;;;;;;;17.23;88.39;101088.97;4965159;28;20244;-77
2021/07/19 05:37:57;;;;;;;7.73;4.20;;;;;;;17.21;87.54;101093.47;4960294;28;20546;-76
2021/07/19 05:40:23;;;;;;;5.97;4.10;;;;;;;17.18;87.18;101092.75;4967164;28;20198;-76
2021/07/19 05:42:50;;;;;;;5.70;3.30;;;;;;;17.19;86.92;101084.78;4961473;28;20214;-76
2021/07/19 05:45:18;;;;;;;5.87;4.27;;;;;;;17.21;86.56;101090.81;4962774;28;20217;-76
2021/07/19 05:47:45;;;;;;;5.90;3.47;;;;;;;17.27;87.46;101088.81;4964687;28;20736;-76
2021/07/19 05:50:12;;;;;;;6.27;4.20;;;;;;;17.24;85.44;101089.84;4962982;28;20218;-76
2021/07/19 05:52:39;;;;;;;8.23;4.17;;;;;;;17.22;86.87;101096.97;4963300;28;20208;-76
2021/07/19 05:55:08;;;;;;;6.17;4.00;;;;;;;17.21;85.30;101105.78;4969244;28;20588;-75
2021/07/19 05:57:34;;;;;;;7.73;3.80;;;;;;;17.17;84.29;101105.06;4946479;28;20220;-75
2021/07/19 06:00:01;;;;;;;4.87;3.47;;;;;;;17.14;85.60;101101.72;4965185;28;20210;-75
2021/07/19 06:02:29;;;;;;;7.33;4.00;;;;;;;17.08;83.50;101110.78;4962591;28;20210;-75
2021/07/19 06:04:57;;;;;;;6.80;3.90;;;;;;;17.10;83.45;101108.91;4963725;28;20222;-75
2021/07/19 06:07:23;;;;;;;5.37;4.00;;;;;;;17.11;83.54;101102.72;4960656;28;20218;-75
2021/07/19 06:09:49;;;;;;;5.90;3.73;;;;;;;17.25;83.78;101112.63;4967469;28;20220;-75
2021/07/19 06:12:16;;;;;;;7.13;4.20;;;;;;;17.32;82.29;101111.41;4964118;28;20214;-75
2021/07/19 06:14:42;;;;;;;6.10;3.70;;;;;;;17.53;84.30;101111.31;4967070;28;20232;-75
2021/07/19 06:17:09;;;;;;;5.57;3.67;;;;;;;17.50;81.23;101114.09;4967060;28;20209;-75
2021/07/19 06:19:37;;;;;;;6.60;3.50;;;;;;;17.62;82.90;101117.94;4962915;28;20198;-75
2021/07/19 06:22:04;;;;;;;6.57;3.63;;;;;;;17.59;82.34;101113.69;4965410;28;20206;-75
2021/07/19 06:24:30;;;;;;;7.83;4.20;;;;;;;17.66;81.96;101111.59;4963468;28;20225;-75
2021/07/19 06:26:56;;;;;;;7.53;3.37;;;;;;;17.62;81.35;101105.59;4963378;28;20203;-75
2021/07/19 06:29:23;;;;;;;5.63;3.40;;;;;;;17.49;80.79;101115.03;4964362;28;20304;-75
2021/07/19 06:31:49;;;;;;;5.13;3.60;;;;;;;17.41;79.99;101110.13;4966953;28;20212;-75
2021/07/19 06:34:16;;;;;;;5.97;3.33;;;;;;;17.31;80.83;101114.13;4964042;28;20209;-76
2021/07/19 06:36:43;;;;;;;6.00;4.17;;;;;;;17.34;80.57;101116.59;4967222;28;20264;-75
2021/07/19 06:39:10;;;;;;;7.97;4.20;;;;;;;17.33;81.31;101109.63;4961857;28;20198;-75
2021/07/19 06:41:36;;;;;;;7.27;3.90;;;;;;;17.37;80.93;101108.56;4967576;28;20208;-75
2021/07/19 06:44:03;;;;;;;7.10;4.50;;;;;;;17.35;80.30;101113.06;4959078;28;20622;-75
2021/07/19 06:46:30;;;;;;;7.87;4.30;;;;;;;17.40;80.42;101114.53;4971048;28;20496;-76
2021/07/19 06:48:56;;;;;;;6.07;4.53;;;;;;;17.51;79.96;101105.28;4945692;28;20210;-74
2021/07/19 06:51:22;;;;;;;6.87;4.43;;;;;;;17.85;80.06;101106.28;4967856;28;20229;-75
2021/07/19 06:53:50;;;;;;;7.37;4.80;;;;;;;17.97;79.07;101114.47;4960480;28;20209;-75
2021/07/19 06:56:16;;;;;;;7.87;4.47;;;;;;;17.97;79.13;101119.75;4966239;28;20229;-75
2021/07/19 06:58:43;;;;;;;9.30;4.47;;;;;;;17.93;77.66;101117.34;4963078;28;20203;-75
2021/07/19 07:01:09;;;;;;;8.10;4.50;;;;;;;17.99;79.13;101119.66;4968177;28;20222;-75
2021/07/19 07:03:35;;;;;;;10.70;4.60;;;;;;;17.97;77.87;101122.38;4963746;28;20214;-76
2021/07/19 07:06:02;;;;;;;8.27;4.57;;;;;;;18.04;78.55;101117.66;4965435;28;20232;-76
2021/07/19 07:08:29;;;;;;;9.20;4.80;;;;;;;18.02;76.55;101116.88;4964485;28;20646;-75
2021/07/19 07:10:58;;;;;;;7.43;5.17;;;;;;;18.09;76.48;101117.44;4964342;28;20308;-75
2021/07/19 07:13:24;;;;;;;7.33;4.60;;;;;;;18.31;78.35;101110.16;4961295;28;20650;-75
2021/07/19 07:15:51;;;;;;;7.67;4.43;;;;;;;18.34;75.80;101117.91;4967511;28;20228;-75
2021/07/19 07:18:17;;;;;;;10.07;4.60;;;;;;;18.17;74.82;101112.66;4965364;28;20202;-75
2021/07/19 07:20:43;;;;;;;5.97;4.20;;;;;;;18.24;76.82;101115.81;4947991;28;20413;-75
2021/07/19 07:23:10;;;;;;;6.33;4.03;;;;;;;18.16;75.39;101119.69;4964597;28;20210;-75
2021/07/19 07:25:36;;;;;;;7.47;3.93;;;;;;;18.21;75.44;101116.84;4966117;28;20209;-75
2021/07/19 07:28:04;;;;;;;5.70;3.90;;;;;;;18.16;75.62;101121.47;4969022;28;20206;-75
2021/07/19 07:30:30;;;;;;;6.77;3.70;;;;;;;18.05;74.19;101124.66;4958097;28;20218;-75
2021/07/19 07:32:58;;;;;;;8.80;3.50;;;;;;;18.08;73.77;101128.91;4968748;28;20242;-75
2021/07/19 07:35:24;;;;;;;8.70;3.70;;;;;;;18.25;71.58;101133.38;4960905;28;20712;-75
2021/07/19 07:37:51;;;;;;;7.07;3.10;;;;;;;18.41;71.23;101128.16;4964486;28;20217;-75
2021/07/19 07:40:19;;;;;;;7.97;3.40;;;;;;;18.39;69.48;101132.66;4959806;28;20607;-76
2021/07/19 07:42:45;;;;;;;7.47;3.73;;;;;;;18.52;69.33;101134.59;4964125;28;20213;-75
2021/07/19 07:45:13;;;;;;;5.83;2.93;;;;;;;18.70;69.40;101130.16;4960261;28;20224;-75
2021/07/19 07:47:41;;;;;;;8.97;3.73;;;;;;;18.89;67.41;101134.47;4965847;28;20205;-75
2021/07/19 07:50:09;;;;;;;6.73;3.10;;;;;;;19.15;68.06;101130.44;4957357;28;20245;-75
2021/07/19 07:52:36;;;;;;;5.13;2.97;;;;;;;19.46;67.56;101137.56;4964692;28;20629;-75
2021/07/19 07:55:04;;;;;;;4.83;3.07;;;;;;;19.37;67.12;101130.16;4955840;28;20230;-75
2021/07/19 07:57:30;;;;;;;9.57;3.27;;;;;;;19.30;66.23;101139.34;4963744;28;20202;-75
2021/07/19 07:59:56;;;;;;;8.33;3.37;;;;;;;19.17;66.14;101133.91;4957826;28;20206;-75
2021/07/19 08:02:24;;;;;;;6.20;2.80;;;;;;;19.03;65.31;101128.47;4963812;28;20198;-75
2021/07/19 08:04:50;;;;;;;6.90;3.10;;;;;;;18.97;65.65;101132.31;4959112;28;20743;-75
2021/07/19 08:07:17;;;;;;;4.93;2.87;;;;;;;18.98;65.76;101131.38;4962072;28;20209;-75
2021/07/19 08:09:43;;;;;;;7.37;3.60;;;;;;;18.81;67.14;101134.88;4961609;28;20216;-75
2021/07/19 08:12:09;;;;;;;6.77;2.97;;;;;;;18.80;66.67;101125.22;4969228;28;20198;-75
2021/07/19 08:14:36;;;;;;;9.13;3.40;;;;;;;18.91;67.15;101128.19;4967097;28;20226;-75
2021/07/19 08:17:03;;;;;;;11.50;3.37;;;;;;;18.62;66.54;101136.75;4965449;28;20212;-75
2021/07/19 08:19:33;;;;;;;9.27;3.60;;;;;;;18.69;67.04;101124.94;4965697;28;20210;-75
2021/07/19 08:21:59;;;;;;;10.50;3.20;;;;;;;18.69;67.46;101128.44;4965466;28;20213;-76
2021/07/19 08:24:26;;;;;;;7.73;3.60;;;;;;;18.61;67.15;101133.28;4967061;28;20222;-75
2021/07/19 08:26:52;;;;;;;8.47;3.30;;;;;;;18.63;67.12;101125.28;4965814;28;20198;-75
2021/07/19 08:29:19;;;;;;;7.37;2.73;;;;;;;18.78;67.71;101123.63;4969376;28;20211;-75
2021/07/19 08:31:45;;;;;;;8.20;3.07;;;;;;;18.78;67.49;101120.97;4963537;28;20230;-75
2021/07/19 08:34:12;;;;;;;6.97;3.07;;;;;;;19.08;66.64;101129.97;4968249;28;20646;-75
2021/07/19 08:36:39;;;;;;;6.67;3.37;;;;;;;19.22;64.11;101123.06;4963985;28;20206;-75
2021/07/19 08:39:06;;;;;;;4.40;2.90;;;;;;;19.49;66.27;101124.19;4971307;28;20268;-75
2021/07/19 08:41:33;;;;;;;5.87;3.17;;;;;;;19.91;65.56;101128.94;4964590;28;20764;-75
2021/07/19 08:44:05;;;;;;;5.83;3.00;;;;;;;19.91;64.83;101127.19;4969193;28;20194;-75
2021/07/19 08:46:31;;;;;;;11.17;3.37;;;;;;;19.59;66.34;101127.16;4962682;28;20206;-75
2021/07/19 08:48:58;;;;;;;3.90;2.90;;;;;;;19.31;67.22;101119.91;4972467;28;20206;-75
2021/07/19 08:51:25;;;;;;;5.47;3.40;;;;;;;18.95;64.49;101130.69;4962246;28;20277;-75
2021/07/19 08:53:54;;;;;;;4.37;3.27;;;;;;;18.87;66.86;101120.50;4971199;28;20198;-75
2021/07/19 08:56:21;;;;;;;8.53;3.13;;;;;;;18.75;66.13;101124.66;4963779;28;20231;-75
2021/07/19 08:58:48;;;;;;;8.83;3.50;;;;;;;18.67;66.25;101127.66;4966946;28;20201;-75
2021/07/19 09:01:14;;;;;;;7.77;3.50;;;;;;;18.56;66.77;101127.38;4964015;28;20225;-75
2021/07/19 09:03:41;;;;;;;7.47;3.27;;;;;;;18.64;67.11;101119.91;4965517;28;20193;-75
2021/07/19 09:06:11;;;;;;;6.37;3.27;;;;;;;18.82;66.06;101126.06;4963612;28;20754;-75
2021/07/19 09:08:46;;;;;;;8.13;3.67;;;;;;;18.87;67.26;101121.38;4968600;28;20213;-75
2021/07/19 09:11:13;;;;;;;6.20;3.00;;;;;;;18.98;66.78;101126.09;4961395;28;20213;-75
2021/07/19 09:13:56;;;;;;;6.17;3.17;;;;;;;18.98;64.58;101134.03;4967044;28;20672;-75
2021/07/19 09:16:22;;;;;;;7.57;3.07;;;;;;;18.97;65.12;101132.31;4961871;28;20318;-75
2021/07/19 09:19:03;;;;;;;6.77;3.43;;;;;;;18.84;65.95;101129.47;4970238;28;20703;-75
2021/07/19 09:21:31;;;;;;;6.60;3.07;;;;;;;19.01;64.77;101131.19;4960784;28;20297;-75
2021/07/19 09:24:02;;;;;;;7.73;3.40;;;;;;;19.07;66.26;101128.25;4966445;28;20301;-75
2021/07/19 09:26:32;;;;;;;6.93;3.20;;;;;;;19.14;66.17;101131.41;4964501;28;20613;-74
2021/07/19 09:28:58;;;;;;;9.03;3.20;;;;;;;19.11;64.88;101134.22;4967859;28;20202;-75
2021/07/19 09:31:31;;;;;;;6.87;3.40;;;;;;;19.09;64.95;101130.81;4964290;28;20225;-75
2021/07/19 09:33:59;;;;;;;5.37;3.17;;;;;;;19.10;64.10;101132.47;4967254;28;20615;-74
2021/07/19 09:36:27;;;;;;;6.33;3.30;;;;;;;19.03;63.31;101133.75;4966193;28;20708;-75
2021/07/19 09:39:05;;;;;;;4.23;2.80;;;;;;;18.79;63.95;101134.09;4964752;28;20765;-75
2021/07/19 09:41:33;;;;;;;7.57;3.27;;;;;;;18.63;64.27;101133.22;4962308;28;20297;-74
2021/07/19 09:43:59;;;;;;;5.00;3.03;;;;;;;18.70;66.30;101139.88;4965275;28;20202;-74
2021/07/19 09:46:32;;;;;;;5.97;3.13;;;;;;;18.62;65.68;101140.25;4963231;28;20230;-75
2021/07/19 09:48:58;;;;;;;6.77;3.50;;;;;;;18.63;65.80;101138.50;4965381;28;20210;-75
2021/07/19 09:51:27;;;;;;;7.20;3.10;;;;;;;18.61;67.86;101137.69;4966344;28;20524;-75
2021/07/19 09:53:54;;;;;;;6.77;3.90;;;;;;;18.54;66.99;101131.91;4965573;28;20205;-75
2021/07/19 09:56:22;;;;;;;5.50;3.23;;;;;;;18.54;65.54;101126.63;4965019;28;20237;-75
2021/07/19 09:58:51;;;;;;;5.47;3.13;;;;;;;18.48;65.52;101126.91;4963700;28;20565;-75
2021/07/19 10:01:29;;;;;;;6.03;3.30;;;;;;;18.50;65.27;101131.19;4964470;28;20662;-75
2021/07/19 10:04:09;;;;;;;7.73;3.70;;;;;;;18.46;63.53;101144.63;4965548;28;20308;-75
2021/07/19 10:06:37;;;;;;;6.80;3.43;;;;;;;18.38;64.72;101149.44;4967434;28;20296;-75
2021/07/19 10:09:07;;;;;;;5.60;3.27;;;;;;;18.52;66.98;101134.59;4960284;28;20209;-75
2021/07/19 10:11:37;;;;;;;5.57;3.47;;;;;;;18.66;65.97;101133.91;4968103;28;20249;-75
2021/07/19 10:14:06;;;;;;;6.53;3.60;;;;;;;18.78;65.63;101131.53;4963873;28;20727;-75
2021/07/19 10:16:34;;;;;;;7.53;3.97;;;;;;;18.82;63.84;101138.38;4966208;28;20214;-75
2021/07/19 10:19:02;;;;;;;7.17;3.60;;;;;;;18.72;62.55;101143.28;4962375;28;20206;-75
2021/07/19 10:21:30;;;;;;;6.40;3.80;;;;;;;18.65;62.98;101137.47;4966582;28;20285;-75
2021/07/19 10:23:59;;;;;;;6.27;3.63;;;;;;;18.80;62.21;101142.88;4961145;28;20198;-75
2021/07/19 10:26:27;;;;;;;9.03;3.40;;;;;;;18.84;62.55;101141.84;4965082;28;20585;-75
2021/07/19 10:28:53;;;;;;;8.43;3.70;;;;;;;18.92;61.98;101140.47;4960219;28;20233;-75
2021/07/19 10:31:21;;;;;;;4.93;3.37;;;;;;;18.81;61.65;101147.22;4968642;28;20233;-75
2021/07/19 10:33:49;;;;;;;6.00;3.17;;;;;;;18.99;62.21;101145.44;4962355;28;20210;-75
2021/07/19 10:36:22;;;;;;;6.47;3.40;;;;;;;18.99;60.29;101142.78;4966800;28;20233;-75
2021/07/19 10:38:50;;;;;;;6.33;3.50;;;;;;;18.98;60.00;101143.72;4964321;28;20205;-76
2021/07/19 10:41:23;;;;;;;9.77;3.97;;;;;;;18.99;61.43;101146.28;4967105;28;20202;-75
2021/07/19 10:43:59;;;;;;;5.70;3.60;;;;;;;19.17;61.79;101140.94;4963313;28;20210;-75
2021/07/19 10:46:27;;;;;;;9.07;3.80;;;;;;;19.14;60.62;101141.97;4968215;28;20319;-75
2021/07/19 10:49:07;;;;;;;6.70;3.83;;;;;;;19.17;60.13;101147.09;4962484;28;20253;-75
2021/07/19 10:51:39;;;;;;;5.40;3.57;;;;;;;19.40;62.01;101147.63;4965426;28;20244;-76
2021/07/19 10:54:12;;;;;;;5.67;3.80;;;;;;;19.51;61.22;101147.03;4961624;28;20661;-75
2021/07/19 10:56:38;;;;;;;5.93;3.33;;;;;;;19.82;60.40;101144.44;4967606;28;20233;-75
2021/07/19 10:59:05;;;;;;;5.57;3.40;;;;;;;20.33;60.00;101141.47;4963914;28;20357;-75
2021/07/19 11:01:34;;;;;;;6.27;3.57;;;;;;;20.44;56.89;101162.06;4968519;28;20648;-75
2021/07/19 11:04:03;;;;;;;6.33;3.57;;;;;;;20.45;55.65;101157.59;4961137;28;20445;-75
2021/07/19 11:06:34;;;;;;;4.97;3.67;;;;;;;20.76;56.91;101149.53;4966220;28;20225;-75
2021/07/19 11:09:01;;;;;;;9.63;3.67;;;;;;;21.06;54.42;101159.22;4960389;28;20220;-75
2021/07/19 11:11:29;;;;;;;6.47;3.73;;;;;;;21.07;56.63;101150.31;4965887;28;20217;-75
2021/07/19 11:13:57;;;;;;;5.90;3.90;;;;;;;20.65;54.68;101152.00;4961592;28;20256;-75
2021/07/19 11:16:24;;;;;;;5.30;3.63;;;;;;;20.44;57.76;101138.22;4969484;28;20214;-75
2021/07/19 11:18:56;;;;;;;5.43;3.70;;;;;;;20.42;55.94;101146.25;4961665;28;20210;-75
2021/07/19 11:21:24;;;;;;;4.87;3.63;;;;;;;20.41;56.83;101133.94;4965404;28;20241;-75
2021/07/19 11:23:51;;;;;;;5.87;3.70;;;;;;;20.42;57.16;101140.06;4963128;28;20665;-75
2021/07/19 11:26:23;;;;;;;6.37;3.47;;;;;;;20.47;55.29;101140.66;4964980;28;20578;-75
2021/07/19 11:28:50;;;;;;;5.70;3.50;;;;;;;20.44;55.92;101143.50;4962773;28;20698;-75
2021/07/19 11:31:24;;;;;;;6.53;3.60;;;;;;;20.28;55.41;101134.75;4965515;28;20222;-75
2021/07/19 11:34:00;;;;;;;7.87;3.50;;;;;;;20.65;57.03;101127.28;4962294;28;20782;-75